sensor_id;sensor_type;location;lat;lon;timestamp;P1;durP1;ratioP1;P2;durP2;ratioP2
31680;SDS011;18281;51.364;9.566;2022-08-11T00:00:09;3.03;;;1.50;;
31680;SDS011;18281;51.364;9.566;2022-08-11T00:02:38;4.35;;;1.35;;
31680;SDS011;18281;51.364;9.566;2022-08-11T00:07:43;3.22;;;1.20;;
31680;SDS011;18281;51.364;9.566;2022-08-11T00:10:11;2.63;;;1.50;;
31680;SDS011;18281;51.364;9.566;2022-08-11T00:12:41;2.20;;;1.70;;
31680;SDS011;18281;51.364;9.566;2022-08-11T00:15:09;3.30;;;1.50;;
31680;SDS011;18281;51.364;9.566;2022-08-11T00:17:38;2.45;;;1.58;;
31680;SDS011;18281;51.364;9.566;2022-08-11T00:20:07;2.38;;;1.50;;
31680;SDS011;18281;51.364;9.566;2022-08-11T00:22:37;4.10;;;1.40;;
31680;SDS011;18281;51.364;9.566;2022-08-11T00:25:12;2.22;;;1.20;;
31680;SDS011;18281;51.364;9.566;2022-08-11T00:27:42;2.25;;;1.38;;
31680;SDS011;18281;51.364;9.566;2022-08-11T00:30:09;3.47;;;1.30;;
31680;SDS011;18281;51.364;9.566;2022-08-11T00:32:38;5.80;;;1.60;;
31680;SDS011;18281;51.364;9.566;2022-08-11T00:35:06;2.10;;;1.40;;
31680;SDS011;18281;51.364;9.566;2022-08-11T00:37:34;1.70;;;1.35;;
31680;SDS011;18281;51.364;9.566;2022-08-11T00:40:03;3.92;;;2.28;;
31680;SDS011;18281;51.364;9.566;2022-08-11T00:45:45;2.22;;;1.52;;
31680;SDS011;18281;51.364;9.566;2022-08-11T00:48:47;3.05;;;1.80;;
31680;SDS011;18281;51.364;9.566;2022-08-11T00:51:46;2.10;;;1.30;;
31680;SDS011;18281;51.364;9.566;2022-08-11T00:57:51;2.20;;;1.30;;
31680;SDS011;18281;51.364;9.566;2022-08-11T01:00:13;1.88;;;1.27;;
31680;SDS011;18281;51.364;9.566;2022-08-11T01:05:35;2.03;;;1.77;;
31680;SDS011;18281;51.364;9.566;2022-08-11T01:32:21;4.88;;;1.48;;
31680;SDS011;18281;51.364;9.566;2022-08-11T01:53:33;3.88;;;1.25;;
31680;SDS011;18281;51.364;9.566;2022-08-11T02:06:38;3.05;;;1.67;;
31680;SDS011;18281;51.364;9.566;2022-08-11T02:11:54;3.80;;;1.45;;
31680;SDS011;18281;51.364;9.566;2022-08-11T02:14:30;3.63;;;1.58;;
31680;SDS011;18281;51.364;9.566;2022-08-11T02:20:16;4.18;;;1.60;;
31680;SDS011;18281;51.364;9.566;2022-08-11T02:23:04;6.10;;;1.77;;
31680;SDS011;18281;51.364;9.566;2022-08-11T02:29:24;7.85;;;1.92;;
31680;SDS011;18281;51.364;9.566;2022-08-11T02:48:17;3.38;;;1.45;;
31680;SDS011;18281;51.364;9.566;2022-08-11T02:51:18;2.50;;;1.60;;
31680;SDS011;18281;51.364;9.566;2022-08-11T03:10:41;3.40;;;1.55;;
31680;SDS011;18281;51.364;9.566;2022-08-11T03:13:50;2.53;;;1.80;;
31680;SDS011;18281;51.364;9.566;2022-08-11T03:16:48;5.00;;;1.70;;
31680;SDS011;18281;51.364;9.566;2022-08-11T03:19:21;4.60;;;1.80;;
31680;SDS011;18281;51.364;9.566;2022-08-11T03:36:04;1.60;;;1.50;;
31680;SDS011;18281;51.364;9.566;2022-08-11T03:41:37;3.72;;;1.67;;
31680;SDS011;18281;51.364;9.566;2022-08-11T03:52:50;2.63;;;1.80;;
31680;SDS011;18281;51.364;9.566;2022-08-11T04:06:33;2.40;;;1.70;;
31680;SDS011;18281;51.364;9.566;2022-08-11T04:26:52;3.10;;;1.77;;
31680;SDS011;18281;51.364;9.566;2022-08-11T04:35:42;2.00;;;1.70;;
31680;SDS011;18281;51.364;9.566;2022-08-11T04:56:47;5.25;;;1.85;;
31680;SDS011;18281;51.364;9.566;2022-08-11T04:59:39;7.55;;;2.25;;
31680;SDS011;18281;51.364;9.566;2022-08-11T05:02:43;3.57;;;1.87;;
31680;SDS011;18281;51.364;9.566;2022-08-11T05:14:21;10.93;;;1.60;;
31680;SDS011;18281;51.364;9.566;2022-08-11T05:17:13;6.63;;;1.95;;
31680;SDS011;18281;51.364;9.566;2022-08-11T05:20:13;3.05;;;1.67;;
31680;SDS011;18281;51.364;9.566;2022-08-11T05:23:00;7.35;;;1.70;;
31680;SDS011;18281;51.364;9.566;2022-08-11T05:25:52;2.25;;;1.88;;
31680;SDS011;18281;51.364;9.566;2022-08-11T05:28:54;4.18;;;2.20;;
31680;SDS011;18281;51.364;9.566;2022-08-11T05:34:53;6.75;;;1.75;;
31680;SDS011;18281;51.364;9.566;2022-08-11T05:37:30;5.45;;;2.63;;
31680;SDS011;18281;51.364;9.566;2022-08-11T05:40:26;2.50;;;1.63;;
31680;SDS011;18281;51.364;9.566;2022-08-11T05:43:14;3.67;;;2.05;;
31680;SDS011;18281;51.364;9.566;2022-08-11T05:46:00;2.30;;;1.60;;
31680;SDS011;18281;51.364;9.566;2022-08-11T05:48:46;9.15;;;1.88;;
31680;SDS011;18281;51.364;9.566;2022-08-11T05:51:36;2.20;;;1.60;;
31680;SDS011;18281;51.364;9.566;2022-08-11T05:54:23;2.08;;;1.25;;
31680;SDS011;18281;51.364;9.566;2022-08-11T05:57:09;6.68;;;1.40;;
31680;SDS011;18281;51.364;9.566;2022-08-11T05:59:45;3.60;;;1.50;;
31680;SDS011;18281;51.364;9.566;2022-08-11T06:02:12;2.47;;;1.55;;
31680;SDS011;18281;51.364;9.566;2022-08-11T06:04:41;3.70;;;1.65;;
31680;SDS011;18281;51.364;9.566;2022-08-11T06:07:08;3.33;;;1.50;;
31680;SDS011;18281;51.364;9.566;2022-08-11T06:12:27;4.20;;;1.35;;
31680;SDS011;18281;51.364;9.566;2022-08-11T06:14:59;4.57;;;1.63;;
31680;SDS011;18281;51.364;9.566;2022-08-11T06:17:29;1.83;;;1.10;;
31680;SDS011;18281;51.364;9.566;2022-08-11T06:20:01;2.17;;;1.33;;
31680;SDS011;18281;51.364;9.566;2022-08-11T06:22:29;3.88;;;1.50;;
31680;SDS011;18281;51.364;9.566;2022-08-11T06:24:59;2.13;;;1.10;;
31680;SDS011;18281;51.364;9.566;2022-08-11T06:27:28;2.97;;;1.65;;
31680;SDS011;18281;51.364;9.566;2022-08-11T06:29:55;1.90;;;1.23;;
31680;SDS011;18281;51.364;9.566;2022-08-11T06:32:26;4.20;;;1.25;;
31680;SDS011;18281;51.364;9.566;2022-08-11T06:35:07;4.18;;;1.40;;
31680;SDS011;18281;51.364;9.566;2022-08-11T06:40:41;2.95;;;1.08;;
31680;SDS011;18281;51.364;9.566;2022-08-11T06:43:53;2.55;;;1.10;;
31680;SDS011;18281;51.364;9.566;2022-08-11T06:46:37;3.78;;;1.90;;
31680;SDS011;18281;51.364;9.566;2022-08-11T06:49:09;3.15;;;1.30;;
31680;SDS011;18281;51.364;9.566;2022-08-11T06:51:57;2.92;;;1.23;;
31680;SDS011;18281;51.364;9.566;2022-08-11T06:54:36;4.65;;;1.05;;
31680;SDS011;18281;51.364;9.566;2022-08-11T06:57:05;1.80;;;1.20;;
31680;SDS011;18281;51.364;9.566;2022-08-11T06:59:51;3.83;;;1.13;;
31680;SDS011;18281;51.364;9.566;2022-08-11T07:02:37;1.88;;;1.30;;
31680;SDS011;18281;51.364;9.566;2022-08-11T07:05:30;1.98;;;1.00;;
31680;SDS011;18281;51.364;9.566;2022-08-11T07:14:09;3.63;;;1.13;;
31680;SDS011;18281;51.364;9.566;2022-08-11T07:16:58;8.40;;;1.20;;
31680;SDS011;18281;51.364;9.566;2022-08-11T07:19:25;2.63;;;1.20;;
31680;SDS011;18281;51.364;9.566;2022-08-11T07:22:12;1.92;;;1.10;;
31680;SDS011;18281;51.364;9.566;2022-08-11T07:25:02;4.60;;;1.30;;
31680;SDS011;18281;51.364;9.566;2022-08-11T07:28:03;1.33;;;1.00;;
31680;SDS011;18281;51.364;9.566;2022-08-11T07:30:54;0.90;;;0.90;;
31680;SDS011;18281;51.364;9.566;2022-08-11T07:33:27;1.42;;;1.17;;
31680;SDS011;18281;51.364;9.566;2022-08-11T07:36:10;4.90;;;1.40;;
31680;SDS011;18281;51.364;9.566;2022-08-11T07:38:38;2.97;;;1.20;;
31680;SDS011;18281;51.364;9.566;2022-08-11T07:41:11;3.72;;;1.33;;
31680;SDS011;18281;51.364;9.566;2022-08-11T07:43:38;1.10;;;1.00;;
31680;SDS011;18281;51.364;9.566;2022-08-11T07:46:05;2.53;;;1.30;;
31680;SDS011;18281;51.364;9.566;2022-08-11T07:48:53;3.97;;;0.95;;
31680;SDS011;18281;51.364;9.566;2022-08-11T07:51:39;1.38;;;1.00;;
31680;SDS011;18281;51.364;9.566;2022-08-11T07:54:25;3.40;;;1.30;;
31680;SDS011;18281;51.364;9.566;2022-08-11T07:56:51;2.30;;;1.20;;
31680;SDS011;18281;51.364;9.566;2022-08-11T07:59:17;4.35;;;1.27;;
31680;SDS011;18281;51.364;9.566;2022-08-11T08:02:03;4.63;;;1.30;;
31680;SDS011;18281;51.364;9.566;2022-08-11T08:04:47;3.67;;;1.00;;
31680;SDS011;18281;51.364;9.566;2022-08-11T08:07:32;3.22;;;0.98;;
31680;SDS011;18281;51.364;9.566;2022-08-11T08:10:17;1.75;;;1.20;;
31680;SDS011;18281;51.364;9.566;2022-08-11T08:13:03;4.72;;;1.08;;
31680;SDS011;18281;51.364;9.566;2022-08-11T08:15:48;4.45;;;1.02;;
31680;SDS011;18281;51.364;9.566;2022-08-11T08:18:35;1.88;;;1.20;;
31680;SDS011;18281;51.364;9.566;2022-08-11T08:21:02;4.80;;;0.95;;
31680;SDS011;18281;51.364;9.566;2022-08-11T08:23:39;2.17;;;1.23;;
31680;SDS011;18281;51.364;9.566;2022-08-11T08:26:10;3.03;;;1.10;;
31680;SDS011;18281;51.364;9.566;2022-08-11T08:29:02;2.35;;;1.10;;
31680;SDS011;18281;51.364;9.566;2022-08-11T08:31:48;4.43;;;1.10;;
31680;SDS011;18281;51.364;9.566;2022-08-11T08:34:16;2.65;;;1.23;;
31680;SDS011;18281;51.364;9.566;2022-08-11T08:36:43;3.60;;;1.10;;
31680;SDS011;18281;51.364;9.566;2022-08-11T08:39:12;5.85;;;1.20;;
31680;SDS011;18281;51.364;9.566;2022-08-11T08:41:38;3.17;;;1.02;;
31680;SDS011;18281;51.364;9.566;2022-08-11T08:44:09;2.20;;;1.10;;
31680;SDS011;18281;51.364;9.566;2022-08-11T08:46:41;2.17;;;1.00;;
31680;SDS011;18281;51.364;9.566;2022-08-11T08:49:09;1.48;;;1.20;;
31680;SDS011;18281;51.364;9.566;2022-08-11T08:51:40;2.00;;;1.30;;
31680;SDS011;18281;51.364;9.566;2022-08-11T08:54:11;7.97;;;1.20;;
31680;SDS011;18281;51.364;9.566;2022-08-11T08:56:54;3.03;;;1.30;;
31680;SDS011;18281;51.364;9.566;2022-08-11T08:59:21;4.20;;;1.30;;
31680;SDS011;18281;51.364;9.566;2022-08-11T09:04:26;1.50;;;1.20;;
31680;SDS011;18281;51.364;9.566;2022-08-11T09:06:53;3.35;;;1.40;;
31680;SDS011;18281;51.364;9.566;2022-08-11T09:09:20;2.07;;;1.50;;
31680;SDS011;18281;51.364;9.566;2022-08-11T09:11:47;6.30;;;1.70;;
31680;SDS011;18281;51.364;9.566;2022-08-11T09:14:20;3.47;;;1.75;;
31680;SDS011;18281;51.364;9.566;2022-08-11T09:16:48;2.88;;;2.10;;
31680;SDS011;18281;51.364;9.566;2022-08-11T09:19:17;3.60;;;1.92;;
31680;SDS011;18281;51.364;9.566;2022-08-11T09:21:48;5.05;;;1.77;;
31680;SDS011;18281;51.364;9.566;2022-08-11T09:24:36;5.70;;;2.53;;
31680;SDS011;18281;51.364;9.566;2022-08-11T09:27:21;3.72;;;2.20;;
31680;SDS011;18281;51.364;9.566;2022-08-11T09:29:48;6.07;;;2.10;;
31680;SDS011;18281;51.364;9.566;2022-08-11T09:32:18;3.10;;;1.88;;
31680;SDS011;18281;51.364;9.566;2022-08-11T09:34:45;8.05;;;2.60;;
31680;SDS011;18281;51.364;9.566;2022-08-11T09:37:11;5.32;;;2.20;;
31680;SDS011;18281;51.364;9.566;2022-08-11T09:39:56;4.38;;;2.15;;
31680;SDS011;18281;51.364;9.566;2022-08-11T09:42:41;4.18;;;2.13;;
31680;SDS011;18281;51.364;9.566;2022-08-11T09:45:25;4.63;;;1.90;;
31680;SDS011;18281;51.364;9.566;2022-08-11T09:47:51;4.55;;;2.10;;
31680;SDS011;18281;51.364;9.566;2022-08-11T09:50:19;2.15;;;1.90;;
31680;SDS011;18281;51.364;9.566;2022-08-11T09:52:45;2.65;;;1.90;;
31680;SDS011;18281;51.364;9.566;2022-08-11T09:55:13;4.07;;;2.20;;
31680;SDS011;18281;51.364;9.566;2022-08-11T09:57:39;4.20;;;1.90;;
31680;SDS011;18281;51.364;9.566;2022-08-11T10:00:32;9.50;;;2.45;;
31680;SDS011;18281;51.364;9.566;2022-08-11T10:03:03;3.45;;;1.88;;
31680;SDS011;18281;51.364;9.566;2022-08-11T10:05:45;2.00;;;1.90;;
31680;SDS011;18281;51.364;9.566;2022-08-11T10:08:31;2.30;;;2.08;;
31680;SDS011;18281;51.364;9.566;2022-08-11T10:11:00;4.03;;;2.28;;
31680;SDS011;18281;51.364;9.566;2022-08-11T10:13:28;4.47;;;2.40;;
31680;SDS011;18281;51.364;9.566;2022-08-11T10:16:02;2.72;;;1.95;;
31680;SDS011;18281;51.364;9.566;2022-08-11T10:18:33;4.40;;;2.22;;
31680;SDS011;18281;51.364;9.566;2022-08-11T10:23:38;4.68;;;2.00;;
31680;SDS011;18281;51.364;9.566;2022-08-11T10:26:23;4.28;;;1.90;;
31680;SDS011;18281;51.364;9.566;2022-08-11T10:29:11;6.15;;;1.77;;
31680;SDS011;18281;51.364;9.566;2022-08-11T10:31:57;2.53;;;1.83;;
31680;SDS011;18281;51.364;9.566;2022-08-11T10:34:43;4.18;;;1.90;;
31680;SDS011;18281;51.364;9.566;2022-08-11T10:37:11;2.35;;;1.90;;
31680;SDS011;18281;51.364;9.566;2022-08-11T10:39:38;3.67;;;1.90;;
31680;SDS011;18281;51.364;9.566;2022-08-11T10:42:04;5.68;;;1.83;;
31680;SDS011;18281;51.364;9.566;2022-08-11T10:44:50;2.45;;;2.03;;
31680;SDS011;18281;51.364;9.566;2022-08-11T10:47:18;3.85;;;1.70;;
31680;SDS011;18281;51.364;9.566;2022-08-11T10:50:18;3.05;;;1.83;;
31680;SDS011;18281;51.364;9.566;2022-08-11T10:53:02;4.95;;;2.10;;
31680;SDS011;18281;51.364;9.566;2022-08-11T10:55:47;6.05;;;2.00;;
31680;SDS011;18281;51.364;9.566;2022-08-11T10:58:31;4.47;;;1.80;;
31680;SDS011;18281;51.364;9.566;2022-08-11T11:01:12;9.07;;;2.15;;
31680;SDS011;18281;51.364;9.566;2022-08-11T11:03:40;4.72;;;1.95;;
31680;SDS011;18281;51.364;9.566;2022-08-11T11:11:56;3.78;;;1.75;;
31680;SDS011;18281;51.364;9.566;2022-08-11T11:14:45;2.08;;;1.88;;
31680;SDS011;18281;51.364;9.566;2022-08-11T11:17:51;3.30;;;1.80;;
31680;SDS011;18281;51.364;9.566;2022-08-11T11:20:21;7.53;;;1.90;;
31680;SDS011;18281;51.364;9.566;2022-08-11T11:22:50;3.13;;;2.15;;
31680;SDS011;18281;51.364;9.566;2022-08-11T11:25:41;7.30;;;1.88;;
31680;SDS011;18281;51.364;9.566;2022-08-11T11:36:54;5.13;;;2.22;;
31680;SDS011;18281;51.364;9.566;2022-08-11T11:39:25;4.05;;;1.90;;
31680;SDS011;18281;51.364;9.566;2022-08-11T11:41:53;5.82;;;2.00;;
31680;SDS011;18281;51.364;9.566;2022-08-11T11:44:21;1.90;;;1.80;;
31680;SDS011;18281;51.364;9.566;2022-08-11T11:46:49;2.17;;;1.77;;
31680;SDS011;18281;51.364;9.566;2022-08-11T11:49:19;3.65;;;1.83;;
31680;SDS011;18281;51.364;9.566;2022-08-11T11:51:48;3.75;;;1.83;;
31680;SDS011;18281;51.364;9.566;2022-08-11T11:54:16;5.95;;;2.35;;
31680;SDS011;18281;51.364;9.566;2022-08-11T11:59:22;2.80;;;1.70;;
31680;SDS011;18281;51.364;9.566;2022-08-11T12:02:28;4.03;;;2.22;;
31680;SDS011;18281;51.364;9.566;2022-08-11T12:04:54;2.70;;;2.00;;
31680;SDS011;18281;51.364;9.566;2022-08-11T12:07:20;3.83;;;1.80;;
31680;SDS011;18281;51.364;9.566;2022-08-11T12:10:06;7.60;;;1.73;;
31680;SDS011;18281;51.364;9.566;2022-08-11T12:12:38;5.93;;;1.95;;
31680;SDS011;18281;51.364;9.566;2022-08-11T12:15:22;3.27;;;1.93;;
31680;SDS011;18281;51.364;9.566;2022-08-11T12:17:48;7.13;;;2.28;;
31680;SDS011;18281;51.364;9.566;2022-08-11T12:20:16;3.75;;;1.88;;
31680;SDS011;18281;51.364;9.566;2022-08-11T12:22:45;9.48;;;1.90;;
31680;SDS011;18281;51.364;9.566;2022-08-11T12:25:29;3.25;;;1.98;;
31680;SDS011;18281;51.364;9.566;2022-08-11T12:28:14;8.55;;;2.78;;
31680;SDS011;18281;51.364;9.566;2022-08-11T12:30:40;4.28;;;2.20;;
31680;SDS011;18281;51.364;9.566;2022-08-11T12:33:09;13.23;;;1.90;;
31680;SDS011;18281;51.364;9.566;2022-08-11T12:35:34;3.50;;;1.83;;
31680;SDS011;18281;51.364;9.566;2022-08-11T12:38:01;2.33;;;1.80;;
31680;SDS011;18281;51.364;9.566;2022-08-11T12:40:28;1.95;;;1.75;;
31680;SDS011;18281;51.364;9.566;2022-08-11T12:43:16;4.55;;;2.15;;
31680;SDS011;18281;51.364;9.566;2022-08-11T12:46:05;3.05;;;2.00;;
31680;SDS011;18281;51.364;9.566;2022-08-11T12:48:38;4.78;;;1.98;;
31680;SDS011;18281;51.364;9.566;2022-08-11T12:51:27;10.32;;;1.83;;
31680;SDS011;18281;51.364;9.566;2022-08-11T12:54:16;3.33;;;1.77;;
31680;SDS011;18281;51.364;9.566;2022-08-11T12:56:52;4.13;;;1.92;;
31680;SDS011;18281;51.364;9.566;2022-08-11T12:59:42;4.43;;;1.92;;
31680;SDS011;18281;51.364;9.566;2022-08-11T13:02:26;3.38;;;1.75;;
31680;SDS011;18281;51.364;9.566;2022-08-11T13:05:12;3.10;;;2.15;;
31680;SDS011;18281;51.364;9.566;2022-08-11T13:07:39;2.22;;;2.00;;
31680;SDS011;18281;51.364;9.566;2022-08-11T13:12:34;5.32;;;1.65;;
31680;SDS011;18281;51.364;9.566;2022-08-11T13:15:19;3.97;;;1.88;;
31680;SDS011;18281;51.364;9.566;2022-08-11T13:17:46;3.70;;;1.85;;
31680;SDS011;18281;51.364;9.566;2022-08-11T13:20:18;10.07;;;1.95;;
31680;SDS011;18281;51.364;9.566;2022-08-11T13:22:56;5.75;;;1.92;;
31680;SDS011;18281;51.364;9.566;2022-08-11T13:25:24;2.33;;;1.83;;
31680;SDS011;18281;51.364;9.566;2022-08-11T13:27:52;10.15;;;2.17;;
31680;SDS011;18281;51.364;9.566;2022-08-11T13:30:22;4.47;;;2.33;;
31680;SDS011;18281;51.364;9.566;2022-08-11T13:33:08;2.38;;;1.80;;
31680;SDS011;18281;51.364;9.566;2022-08-11T13:35:34;5.93;;;1.92;;
31680;SDS011;18281;51.364;9.566;2022-08-11T13:38:00;8.63;;;1.95;;
31680;SDS011;18281;51.364;9.566;2022-08-11T13:40:27;4.55;;;1.80;;
31680;SDS011;18281;51.364;9.566;2022-08-11T13:42:53;5.75;;;1.83;;
31680;SDS011;18281;51.364;9.566;2022-08-11T13:45:25;6.40;;;1.98;;
31680;SDS011;18281;51.364;9.566;2022-08-11T13:47:54;6.00;;;2.13;;
31680;SDS011;18281;51.364;9.566;2022-08-11T13:50:25;2.05;;;1.95;;
31680;SDS011;18281;51.364;9.566;2022-08-11T13:53:11;2.20;;;1.50;;
31680;SDS011;18281;51.364;9.566;2022-08-11T13:55:43;7.28;;;1.63;;
31680;SDS011;18281;51.364;9.566;2022-08-11T13:58:09;4.82;;;1.63;;
31680;SDS011;18281;51.364;9.566;2022-08-11T14:00:36;5.13;;;1.85;;
31680;SDS011;18281;51.364;9.566;2022-08-11T14:03:02;5.00;;;1.98;;
31680;SDS011;18281;51.364;9.566;2022-08-11T14:05:36;2.53;;;1.50;;
31680;SDS011;18281;51.364;9.566;2022-08-11T14:08:08;5.03;;;1.83;;
31680;SDS011;18281;51.364;9.566;2022-08-11T14:10:37;7.63;;;1.83;;
31680;SDS011;18281;51.364;9.566;2022-08-11T14:13:08;6.90;;;1.92;;
31680;SDS011;18281;51.364;9.566;2022-08-11T14:15:57;1.90;;;1.70;;
31680;SDS011;18281;51.364;9.566;2022-08-11T14:18:29;3.90;;;1.65;;
31680;SDS011;18281;51.364;9.566;2022-08-11T14:20:56;1.88;;;1.60;;
31680;SDS011;18281;51.364;9.566;2022-08-11T14:23:50;1.58;;;1.48;;
31680;SDS011;18281;51.364;9.566;2022-08-11T14:26:19;1.60;;;1.50;;
31680;SDS011;18281;51.364;9.566;2022-08-11T14:28:51;2.80;;;2.10;;
31680;SDS011;18281;51.364;9.566;2022-08-11T14:31:19;6.55;;;1.80;;
31680;SDS011;18281;51.364;9.566;2022-08-11T14:33:51;3.92;;;1.90;;
31680;SDS011;18281;51.364;9.566;2022-08-11T14:36:19;4.28;;;2.10;;
31680;SDS011;18281;51.364;9.566;2022-08-11T14:38:47;6.68;;;2.22;;
31680;SDS011;18281;51.364;9.566;2022-08-11T14:41:14;5.97;;;2.17;;
31680;SDS011;18281;51.364;9.566;2022-08-11T14:43:59;1.65;;;1.50;;
31680;SDS011;18281;51.364;9.566;2022-08-11T14:46:44;6.20;;;2.00;;
31680;SDS011;18281;51.364;9.566;2022-08-11T14:49:28;1.58;;;1.40;;
31680;SDS011;18281;51.364;9.566;2022-08-11T14:51:55;3.00;;;1.73;;
31680;SDS011;18281;51.364;9.566;2022-08-11T14:54:27;1.95;;;1.80;;
31680;SDS011;18281;51.364;9.566;2022-08-11T14:57:16;4.75;;;1.80;;
31680;SDS011;18281;51.364;9.566;2022-08-11T14:59:43;1.77;;;1.60;;
31680;SDS011;18281;51.364;9.566;2022-08-11T15:02:13;3.30;;;1.95;;
31680;SDS011;18281;51.364;9.566;2022-08-11T15:05:01;11.82;;;1.85;;
31680;SDS011;18281;51.364;9.566;2022-08-11T15:07:28;4.30;;;1.98;;
31680;SDS011;18281;51.364;9.566;2022-08-11T15:09:56;8.02;;;2.00;;
31680;SDS011;18281;51.364;9.566;2022-08-11T15:12:24;3.40;;;1.50;;
31680;SDS011;18281;51.364;9.566;2022-08-11T15:14:50;2.55;;;1.70;;
31680;SDS011;18281;51.364;9.566;2022-08-11T15:17:34;4.05;;;1.80;;
31680;SDS011;18281;51.364;9.566;2022-08-11T15:20:06;5.43;;;1.77;;
31680;SDS011;18281;51.364;9.566;2022-08-11T15:22:53;7.90;;;1.85;;
31680;SDS011;18281;51.364;9.566;2022-08-11T15:25:37;10.52;;;1.88;;
31680;SDS011;18281;51.364;9.566;2022-08-11T15:28:07;7.05;;;1.77;;
31680;SDS011;18281;51.364;9.566;2022-08-11T15:30:54;5.88;;;1.88;;
31680;SDS011;18281;51.364;9.566;2022-08-11T15:33:40;6.10;;;1.83;;
31680;SDS011;18281;51.364;9.566;2022-08-11T15:36:30;5.03;;;1.67;;
31680;SDS011;18281;51.364;9.566;2022-08-11T15:41:50;3.00;;;1.80;;
31680;SDS011;18281;51.364;9.566;2022-08-11T15:44:40;2.58;;;2.30;;
31680;SDS011;18281;51.364;9.566;2022-08-11T15:47:26;3.58;;;1.70;;
31680;SDS011;18281;51.364;9.566;2022-08-11T15:49:57;2.30;;;1.88;;
31680;SDS011;18281;51.364;9.566;2022-08-11T15:52:29;5.57;;;1.70;;
31680;SDS011;18281;51.364;9.566;2022-08-11T15:54:58;3.63;;;1.80;;
31680;SDS011;18281;51.364;9.566;2022-08-11T15:57:33;3.35;;;1.75;;
31680;SDS011;18281;51.364;9.566;2022-08-11T16:00:19;3.80;;;1.73;;
31680;SDS011;18281;51.364;9.566;2022-08-11T16:03:03;5.70;;;1.70;;
31680;SDS011;18281;51.364;9.566;2022-08-11T16:05:49;2.80;;;1.88;;
31680;SDS011;18281;51.364;9.566;2022-08-11T16:08:16;5.93;;;1.60;;
31680;SDS011;18281;51.364;9.566;2022-08-11T16:10:46;2.20;;;1.70;;
31680;SDS011;18281;51.364;9.566;2022-08-11T16:13:13;3.13;;;1.55;;
31680;SDS011;18281;51.364;9.566;2022-08-11T16:15:41;2.20;;;1.52;;
31680;SDS011;18281;51.364;9.566;2022-08-11T16:21:25;2.20;;;1.40;;
31680;SDS011;18281;51.364;9.566;2022-08-11T16:23:55;5.13;;;1.70;;
31680;SDS011;18281;51.364;9.566;2022-08-11T16:26:23;8.57;;;2.15;;
31680;SDS011;18281;51.364;9.566;2022-08-11T16:28:54;3.08;;;1.65;;
31680;SDS011;18281;51.364;9.566;2022-08-11T16:31:22;7.75;;;1.85;;
31680;SDS011;18281;51.364;9.566;2022-08-11T16:33:49;6.45;;;1.80;;
31680;SDS011;18281;51.364;9.566;2022-08-11T16:36:17;4.18;;;1.73;;
31680;SDS011;18281;51.364;9.566;2022-08-11T16:39:03;4.95;;;1.52;;
31680;SDS011;18281;51.364;9.566;2022-08-11T16:41:30;5.30;;;1.63;;
31680;SDS011;18281;51.364;9.566;2022-08-11T16:44:17;2.55;;;1.85;;
31680;SDS011;18281;51.364;9.566;2022-08-11T16:47:03;6.78;;;1.83;;
31680;SDS011;18281;51.364;9.566;2022-08-11T16:49:31;4.47;;;1.90;;
31680;SDS011;18281;51.364;9.566;2022-08-11T16:52:00;1.80;;;1.52;;
31680;SDS011;18281;51.364;9.566;2022-08-11T16:54:31;5.28;;;1.73;;
31680;SDS011;18281;51.364;9.566;2022-08-11T16:56:58;3.15;;;1.80;;
31680;SDS011;18281;51.364;9.566;2022-08-11T16:59:46;3.67;;;1.52;;
31680;SDS011;18281;51.364;9.566;2022-08-11T17:02:16;3.80;;;2.17;;
31680;SDS011;18281;51.364;9.566;2022-08-11T17:05:06;8.63;;;2.22;;
31680;SDS011;18281;51.364;9.566;2022-08-11T17:07:53;3.63;;;1.88;;
31680;SDS011;18281;51.364;9.566;2022-08-11T17:10:43;5.70;;;1.90;;
31680;SDS011;18281;51.364;9.566;2022-08-11T17:16:21;6.13;;;1.92;;
31680;SDS011;18281;51.364;9.566;2022-08-11T17:19:33;1.45;;;1.35;;
31680;SDS011;18281;51.364;9.566;2022-08-11T17:21:49;3.95;;;1.63;;
31680;SDS011;18281;51.364;9.566;2022-08-11T17:24:34;3.78;;;1.90;;
31680;SDS011;18281;51.364;9.566;2022-08-11T17:27:03;4.05;;;2.28;;
31680;SDS011;18281;51.364;9.566;2022-08-11T17:29:36;2.75;;;1.98;;
31680;SDS011;18281;51.364;9.566;2022-08-11T17:32:05;7.90;;;1.80;;
31680;SDS011;18281;51.364;9.566;2022-08-11T17:34:53;3.65;;;1.80;;
31680;SDS011;18281;51.364;9.566;2022-08-11T17:37:41;5.97;;;1.60;;
31680;SDS011;18281;51.364;9.566;2022-08-11T17:40:09;3.78;;;1.48;;
31680;SDS011;18281;51.364;9.566;2022-08-11T17:42:37;4.82;;;1.98;;
31680;SDS011;18281;51.364;9.566;2022-08-11T17:45:24;2.28;;;1.73;;
31680;SDS011;18281;51.364;9.566;2022-08-11T17:48:10;5.60;;;1.60;;
31680;SDS011;18281;51.364;9.566;2022-08-11T17:50:50;3.65;;;1.55;;
31680;SDS011;18281;51.364;9.566;2022-08-11T17:53:25;2.70;;;1.67;;
31680;SDS011;18281;51.364;9.566;2022-08-11T17:56:11;3.78;;;1.65;;
31680;SDS011;18281;51.364;9.566;2022-08-11T17:58:57;3.38;;;1.80;;
31680;SDS011;18281;51.364;9.566;2022-08-11T18:01:43;1.83;;;1.58;;
31680;SDS011;18281;51.364;9.566;2022-08-11T18:04:10;3.83;;;1.67;;
31680;SDS011;18281;51.364;9.566;2022-08-11T18:06:38;4.45;;;1.83;;
31680;SDS011;18281;51.364;9.566;2022-08-11T18:09:12;2.45;;;1.70;;
31680;SDS011;18281;51.364;9.566;2022-08-11T18:12:00;3.40;;;1.70;;
31680;SDS011;18281;51.364;9.566;2022-08-11T18:14:46;5.50;;;1.70;;
31680;SDS011;18281;51.364;9.566;2022-08-11T18:17:33;4.55;;;1.75;;
31680;SDS011;18281;51.364;9.566;2022-08-11T18:20:18;5.88;;;1.70;;
31680;SDS011;18281;51.364;9.566;2022-08-11T18:23:06;4.30;;;1.63;;
31680;SDS011;18281;51.364;9.566;2022-08-11T18:25:54;4.78;;;1.60;;
31680;SDS011;18281;51.364;9.566;2022-08-11T18:28:43;1.90;;;1.60;;
31680;SDS011;18281;51.364;9.566;2022-08-11T18:31:34;2.85;;;2.65;;
31680;SDS011;18281;51.364;9.566;2022-08-11T18:34:23;3.95;;;2.50;;
31680;SDS011;18281;51.364;9.566;2022-08-11T18:37:15;8.32;;;2.28;;
31680;SDS011;18281;51.364;9.566;2022-08-11T18:40:07;4.18;;;1.60;;
31680;SDS011;18281;51.364;9.566;2022-08-11T18:42:57;5.30;;;1.83;;
31680;SDS011;18281;51.364;9.566;2022-08-11T18:45:45;3.08;;;1.80;;
31680;SDS011;18281;51.364;9.566;2022-08-11T18:48:31;3.72;;;1.60;;
31680;SDS011;18281;51.364;9.566;2022-08-11T18:51:19;2.95;;;1.90;;
31680;SDS011;18281;51.364;9.566;2022-08-11T18:54:11;4.82;;;1.70;;
31680;SDS011;18281;51.364;9.566;2022-08-11T18:56:59;6.30;;;1.83;;
31680;SDS011;18281;51.364;9.566;2022-08-11T18:59:46;1.70;;;1.60;;
31680;SDS011;18281;51.364;9.566;2022-08-11T19:02:35;3.63;;;1.52;;
31680;SDS011;18281;51.364;9.566;2022-08-11T19:05:21;4.30;;;1.75;;
31680;SDS011;18281;51.364;9.566;2022-08-11T19:08:07;4.50;;;1.92;;
31680;SDS011;18281;51.364;9.566;2022-08-11T19:10:55;3.15;;;2.05;;
31680;SDS011;18281;51.364;9.566;2022-08-11T19:13:41;6.43;;;1.80;;
31680;SDS011;18281;51.364;9.566;2022-08-11T19:16:27;3.03;;;1.75;;
31680;SDS011;18281;51.364;9.566;2022-08-11T19:19:12;3.58;;;1.80;;
31680;SDS011;18281;51.364;9.566;2022-08-11T19:21:59;5.15;;;1.77;;
31680;SDS011;18281;51.364;9.566;2022-08-11T19:24:49;2.10;;;1.88;;
31680;SDS011;18281;51.364;9.566;2022-08-11T19:27:35;3.80;;;1.90;;
31680;SDS011;18281;51.364;9.566;2022-08-11T19:30:21;8.82;;;2.35;;
31680;SDS011;18281;51.364;9.566;2022-08-11T19:33:06;5.43;;;2.25;;
31680;SDS011;18281;51.364;9.566;2022-08-11T19:35:53;1.90;;;1.80;;
31680;SDS011;18281;51.364;9.566;2022-08-11T19:38:40;7.03;;;1.95;;
31680;SDS011;18281;51.364;9.566;2022-08-11T19:41:24;2.08;;;1.70;;
31680;SDS011;18281;51.364;9.566;2022-08-11T19:44:12;2.47;;;2.00;;
31680;SDS011;18281;51.364;9.566;2022-08-11T19:46:58;4.95;;;1.77;;
31680;SDS011;18281;51.364;9.566;2022-08-11T19:49:43;12.50;;;2.38;;
31680;SDS011;18281;51.364;9.566;2022-08-11T19:52:32;10.57;;;2.08;;
31680;SDS011;18281;51.364;9.566;2022-08-11T19:55:18;3.30;;;2.17;;